createdAt,value
2023-05-09T00:01:50.118Z,101739.25
2023-05-09T00:04:17.963Z,101734.84
2023-05-09T00:06:46.552Z,101737.47
2023-05-09T00:09:14.221Z,101744.66
2023-05-09T00:11:42.182Z,101733.88
2023-05-09T00:14:12.457Z,101735.63
2023-05-09T00:16:40.675Z,101731.44
2023-05-09T00:19:08.375Z,101727.63
2023-05-09T00:21:36.446Z,101730.59
2023-05-09T00:24:04.399Z,101731.94
2023-05-09T00:26:32.331Z,101737.16
2023-05-09T00:28:59.971Z,101723.31
2023-05-09T00:31:28.076Z,101728.19
2023-05-09T00:33:55.774Z,101729.94
2023-05-09T00:36:23.796Z,101729.59
2023-05-09T00:38:51.527Z,101729.56
2023-05-09T00:41:19.476Z,101727.25
2023-05-09T00:43:47.424Z,101715.09
2023-05-09T00:46:16.036Z,101721.13
2023-05-09T00:48:43.846Z,101726.94
2023-05-09T00:51:11.944Z,101732.91
2023-05-09T00:53:40.597Z,101721.66
2023-05-09T00:56:10.505Z,101727.72
2023-05-09T00:58:38.655Z,101715.13
2023-05-09T01:01:06.660Z,101719.03
2023-05-09T01:03:35.797Z,101719.66
2023-05-09T01:06:12.954Z,101717.78
2023-05-09T01:09:19.398Z,101720.63
2023-05-09T01:12:08.620Z,101718.19
2023-05-09T01:14:49.442Z,101722.44
2023-05-09T01:17:31.691Z,101716.28
2023-05-09T01:20:11.906Z,101722.50
2023-05-09T01:22:55.553Z,101719.50
2023-05-09T01:25:52.033Z,101718.25
2023-05-09T01:28:33.699Z,101710.34
2023-05-09T01:31:03.687Z,101724.97
2023-05-09T01:33:36.469Z,101722.22
2023-05-09T01:36:08.218Z,101719.66
2023-05-09T01:38:39.276Z,101721.34
2023-05-09T01:41:09.329Z,101716.06
2023-05-09T01:43:39.400Z,101714.88
2023-05-09T01:46:08.272Z,101713.78
2023-05-09T01:48:37.995Z,101711.16
2023-05-09T01:51:06.890Z,101718.66
2023-05-09T01:53:36.273Z,101717.81
2023-05-09T01:56:06.980Z,101721.16
2023-05-09T01:58:36.947Z,101724.34
2023-05-09T02:01:05.900Z,101717.44
2023-05-09T02:03:37.175Z,101720.53
2023-05-09T02:06:06.212Z,101721.78
2023-05-09T02:08:34.607Z,101717.03
2023-05-09T02:11:02.357Z,101719.75
2023-05-09T02:13:30.685Z,101720.63
2023-05-09T02:15:58.660Z,101718.69
2023-05-09T02:18:27.526Z,101716.66
2023-05-09T02:20:55.290Z,101708.63
2023-05-09T02:23:23.290Z,101712.03
2023-05-09T02:25:51.859Z,101720.56
2023-05-09T02:28:22.584Z,101713.97
2023-05-09T02:30:52.246Z,101716.09
2023-05-09T02:33:20.287Z,101723.69
2023-05-09T02:35:48.902Z,101719.03
2023-05-09T02:38:17.853Z,101715.22
2023-05-09T02:40:49.808Z,101719.09
2023-05-09T02:43:19.612Z,101720.53
2023-05-09T02:45:47.293Z,101717.53
2023-05-09T02:48:15.350Z,101721.78
2023-05-09T02:50:43.507Z,101710.47
2023-05-09T02:53:11.815Z,101721.28
2023-05-09T02:55:41.801Z,101718.94
2023-05-09T02:58:13.433Z,101717.13
2023-05-09T03:00:43.677Z,101717.19
2023-05-09T03:03:13.889Z,101716.00
2023-05-09T03:05:41.821Z,101722.81
2023-05-09T03:08:09.774Z,101722.94
2023-05-09T03:10:37.421Z,101729.75
2023-05-09T03:13:05.612Z,101723.06
2023-05-09T03:15:33.565Z,101725.50
2023-05-09T03:18:01.691Z,101731.53
2023-05-09T03:20:30.290Z,101730.13
2023-05-09T03:22:58.719Z,101724.09
2023-05-09T03:25:26.555Z,101724.00
2023-05-09T03:27:54.447Z,101725.72
2023-05-09T03:30:23.318Z,101719.69
2023-05-09T03:32:51.259Z,101718.88
2023-05-09T03:35:19.762Z,101728.91
2023-05-09T03:37:47.702Z,101716.63
2023-05-09T03:40:15.400Z,101725.22
2023-05-09T03:42:50.563Z,101722.13
2023-05-09T03:45:18.348Z,101727.31
2023-05-09T03:47:47.861Z,101725.56
2023-05-09T03:50:16.220Z,101729.75
2023-05-09T03:52:45.130Z,101732.41
2023-05-09T03:55:16.851Z,101726.44
2023-05-09T03:57:45.070Z,101724.97
2023-05-09T04:00:13.536Z,101722.00
2023-05-09T04:02:52.305Z,101724.06
2023-05-09T04:05:33.708Z,101727.63
2023-05-09T04:08:02.708Z,101725.41
2023-05-09T04:10:32.792Z,101720.59
2023-05-09T04:13:01.300Z,101718.88
2023-05-09T04:15:29.255Z,101717.84
2023-05-09T04:17:58.947Z,101717.22
2023-05-09T04:20:26.836Z,101720.63
2023-05-09T04:22:55.354Z,101719.84
2023-05-09T04:25:23.535Z,101716.53
2023-05-09T04:27:51.774Z,101721.94
2023-05-09T04:30:19.569Z,101715.19
2023-05-09T04:32:49.100Z,101720.72
2023-05-09T04:35:19.775Z,101720.25
2023-05-09T04:37:52.176Z,101724.38
2023-05-09T04:40:20.372Z,101727.34
2023-05-09T04:42:59.876Z,101728.69
2023-05-09T04:45:31.962Z,101721.63
2023-05-09T04:48:01.558Z,101730.50
2023-05-09T04:50:30.318Z,101726.16
2023-05-09T04:52:58.282Z,101721.78
2023-05-09T04:55:26.342Z,101728.84
2023-05-09T04:57:54.905Z,101727.59
2023-05-09T05:00:23.015Z,101719.81
2023-05-09T05:02:51.283Z,101727.09
2023-05-09T05:05:24.612Z,101725.03
2023-05-09T05:07:54.362Z,101719.25
2023-05-09T05:10:26.554Z,101724.03
2023-05-09T05:13:02.843Z,101724.22
2023-05-09T05:15:30.979Z,101724.47
2023-05-09T05:18:00.188Z,101727.34
2023-05-09T05:20:34.170Z,101727.47
2023-05-09T05:23:02.758Z,101731.06
2023-05-09T05:25:31.335Z,101731.44
2023-05-09T05:28:01.263Z,101722.94
2023-05-09T05:30:29.162Z,101728.88
2023-05-09T05:32:57.426Z,101729.75
2023-05-09T05:35:28.389Z,101730.16
2023-05-09T05:37:57.262Z,101725.88
2023-05-09T05:40:26.227Z,101725.63
2023-05-09T05:42:55.911Z,101726.78
2023-05-09T05:45:24.186Z,101718.63
2023-05-09T05:47:56.329Z,101722.25
2023-05-09T05:50:25.000Z,101711.09
2023-05-09T05:52:54.432Z,101707.00
2023-05-09T05:55:22.482Z,101711.41
2023-05-09T05:57:50.565Z,101709.97
2023-05-09T06:00:18.599Z,101712.13
2023-05-09T06:02:51.785Z,101707.53
2023-05-09T06:05:25.459Z,101703.75
2023-05-09T06:07:53.977Z,101705.97
2023-05-09T06:10:21.761Z,101713.94
2023-05-09T06:12:49.749Z,101711.84
2023-05-09T06:15:18.710Z,101715.13
2023-05-09T06:17:50.079Z,101710.91
2023-05-09T06:20:17.900Z,101713.41
2023-05-09T06:22:45.855Z,101704.03
2023-05-09T06:25:13.728Z,101705.78
2023-05-09T06:27:42.149Z,101711.66
2023-05-09T06:32:41.288Z,101705.75
2023-05-09T06:35:09.133Z,101705.66
2023-05-09T06:37:37.099Z,101711.13
2023-05-09T06:40:05.200Z,101712.50
2023-05-09T06:42:33.820Z,101707.94
2023-05-09T06:45:01.675Z,101712.03
2023-05-09T06:47:29.792Z,101716.13
2023-05-09T06:49:57.525Z,101718.38
2023-05-09T06:52:25.540Z,101718.34
2023-05-09T06:54:54.705Z,101706.56
2023-05-09T06:57:22.968Z,101719.00
2023-05-09T06:59:50.751Z,101694.81
2023-05-09T07:02:18.814Z,101709.09
2023-05-09T07:04:46.621Z,101714.66
2023-05-09T07:07:14.657Z,101698.28
2023-05-09T07:09:42.303Z,101706.63
2023-05-09T07:12:10.257Z,101711.41
2023-05-09T07:14:38.271Z,101701.66
2023-05-09T07:17:21.701Z,101706.53
2023-05-09T07:19:51.534Z,101705.50
2023-05-09T07:22:19.517Z,101702.81
2023-05-09T07:24:47.410Z,101693.59
2023-05-09T07:27:15.364Z,101691.09
2023-05-09T07:29:43.037Z,101688.66
2023-05-09T07:32:11.153Z,101688.59
2023-05-09T07:34:38.868Z,101691.56
2023-05-09T07:37:06.769Z,101678.16
2023-05-09T07:39:34.490Z,101682.84
2023-05-09T07:42:02.413Z,101679.56
2023-05-09T07:44:30.109Z,101674.06
2023-05-09T07:46:59.386Z,101678.88
2023-05-09T07:49:27.125Z,101675.19
2023-05-09T07:51:55.123Z,101669.28
2023-05-09T07:54:22.789Z,101665.50
2023-05-09T07:56:50.896Z,101679.47
2023-05-09T07:59:18.636Z,101683.84
2023-05-09T08:01:46.565Z,101674.72
2023-05-09T08:04:14.439Z,101667.72
2023-05-09T08:06:42.393Z,101669.69
2023-05-09T08:09:10.434Z,101664.66
2023-05-09T08:11:38.512Z,101661.69
2023-05-09T08:14:06.164Z,101655.56
2023-05-09T08:16:34.218Z,101662.72
2023-05-09T08:19:02.061Z,101668.84
2023-05-09T08:21:30.071Z,101661.84
2023-05-09T08:23:57.856Z,101649.06
2023-05-09T08:26:27.286Z,101658.25
2023-05-09T08:28:55.029Z,101647.16
2023-05-09T08:31:23.092Z,101638.53
2023-05-09T08:33:50.803Z,101639.03
2023-05-09T08:36:18.756Z,101634.94
2023-05-09T08:38:46.570Z,101633.88
2023-05-09T08:41:14.652Z,101633.84
2023-05-09T08:43:42.403Z,101625.13
2023-05-09T08:46:11.819Z,101629.75
2023-05-09T08:48:39.828Z,101636.88
2023-05-09T08:51:08.408Z,101626.09
2023-05-09T08:53:36.353Z,101628.38
2023-05-09T08:56:04.781Z,101627.88
2023-05-09T08:58:33.320Z,101624.31
2023-05-09T09:01:04.637Z,101618.94
2023-05-09T09:03:33.012Z,101621.63
2023-05-09T09:06:01.283Z,101615.34
2023-05-09T09:08:29.900Z,101611.38
2023-05-09T09:10:58.097Z,101609.59
2023-05-09T09:13:26.565Z,101598.59
2023-05-09T09:15:58.931Z,101599.53
2023-05-09T09:18:30.778Z,101603.56
2023-05-09T09:21:05.128Z,101593.59
2023-05-09T09:23:33.335Z,101592.88
2023-05-09T09:26:04.897Z,101601.41
2023-05-09T09:28:33.469Z,101611.13
2023-05-09T09:31:01.976Z,101602.28
2023-05-09T09:33:30.086Z,101601.94
2023-05-09T09:35:59.339Z,101597.09
2023-05-09T09:38:27.012Z,101605.25
2023-05-09T09:40:56.835Z,101590.03
2023-05-09T09:43:32.151Z,101576.09
2023-05-09T09:46:07.042Z,101577.81
2023-05-09T09:48:35.865Z,101577.19
2023-05-09T09:51:10.837Z,101586.13
2023-05-09T09:53:43.361Z,101591.59
2023-05-09T09:56:11.876Z,101579.38
2023-05-09T09:58:39.842Z,101574.91
2023-05-09T10:01:14.340Z,101581.47
2023-05-09T10:03:45.432Z,101577.63
2023-05-09T10:06:15.147Z,101583.03
2023-05-09T10:08:44.411Z,101566.25
2023-05-09T10:11:12.806Z,101569.00
2023-05-09T10:13:40.644Z,101575.94
2023-05-09T10:16:10.539Z,101568.78
2023-05-09T10:18:39.714Z,101562.97
2023-05-09T10:21:11.843Z,101550.34
2023-05-09T10:23:44.233Z,101558.66
2023-05-09T10:26:18.006Z,101554.16
2023-05-09T10:28:48.132Z,101553.56
2023-05-09T10:31:23.398Z,101549.16
2023-05-09T10:33:52.310Z,101546.78
2023-05-09T10:36:21.858Z,101537.22
2023-05-09T10:38:50.860Z,101539.19
2023-05-09T10:41:20.032Z,101550.94
2023-05-09T10:43:48.450Z,101542.34
2023-05-09T10:46:17.862Z,101532.19
2023-05-09T10:48:48.083Z,101531.63
2023-05-09T10:51:17.225Z,101529.66
2023-05-09T10:53:48.055Z,101515.75
2023-05-09T10:56:39.922Z,101525.84
2023-05-09T10:59:27.991Z,101528.00
2023-05-09T11:02:01.123Z,101518.16
2023-05-09T11:04:29.521Z,101520.13
2023-05-09T11:06:57.831Z,101516.44
2023-05-09T11:09:38.869Z,101518.69
2023-05-09T11:12:19.247Z,101512.59
2023-05-09T11:14:56.065Z,101507.34
2023-05-09T11:17:31.724Z,101509.25
2023-05-09T11:20:09.972Z,101502.38
2023-05-09T11:22:43.187Z,101491.41
2023-05-09T11:25:13.791Z,101489.69
2023-05-09T11:27:47.956Z,101477.47
2023-05-09T11:30:18.330Z,101481.59
2023-05-09T11:32:55.912Z,101486.91
2023-05-09T11:35:26.817Z,101476.19
2023-05-09T11:38:06.571Z,101472.06
2023-05-09T11:40:35.489Z,101466.84
2023-05-09T11:43:03.580Z,101461.50
2023-05-09T11:45:33.346Z,101455.66
2023-05-09T11:48:02.132Z,101452.59
2023-05-09T11:50:29.966Z,101448.03
2023-05-09T11:52:58.567Z,101437.50
2023-05-09T11:55:29.887Z,101436.13
2023-05-09T11:57:58.586Z,101434.00
2023-05-09T12:00:26.667Z,101436.56
2023-05-09T12:02:54.875Z,101425.06
2023-05-09T12:05:23.804Z,101422.97
2023-05-09T12:07:52.836Z,101420.72
2023-05-09T12:10:23.071Z,101399.03
2023-05-09T12:12:53.397Z,101418.66
2023-05-09T12:15:22.108Z,101423.22
2023-05-09T12:18:05.585Z,101423.38
2023-05-09T12:20:48.507Z,101407.78
2023-05-09T12:23:17.071Z,101408.03
2023-05-09T12:25:55.269Z,101400.38
2023-05-09T12:28:27.253Z,101408.53
2023-05-09T12:30:55.479Z,101402.50
2023-05-09T12:33:23.940Z,101405.22
2023-05-09T12:36:03.435Z,101396.31
2023-05-09T12:38:31.857Z,101388.31
2023-05-09T12:41:15.547Z,101382.94
2023-05-09T12:43:49.227Z,101384.19
2023-05-09T12:46:23.468Z,101380.88
2023-05-09T12:48:51.835Z,101369.47
2023-05-09T12:51:22.090Z,101376.31
2023-05-09T12:53:50.435Z,101372.66
2023-05-09T12:56:25.270Z,101365.13
2023-05-09T12:58:55.699Z,101369.16
2023-05-09T13:01:28.605Z,101364.22
2023-05-09T13:04:05.914Z,101354.47
2023-05-09T13:06:36.400Z,101347.91
2023-05-09T13:09:09.364Z,101340.38
2023-05-09T13:11:41.066Z,101341.19
2023-05-09T13:14:09.566Z,101343.38
2023-05-09T13:16:37.464Z,101340.53
2023-05-09T13:19:05.537Z,101337.38
2023-05-09T13:21:34.247Z,101331.81
2023-05-09T13:24:03.128Z,101330.09
2023-05-09T13:26:31.256Z,101340.66
2023-05-09T13:28:59.427Z,101330.09
2023-05-09T13:31:27.289Z,101330.09
2023-05-09T13:33:55.452Z,101326.78
2023-05-09T13:36:23.228Z,101318.38
2023-05-09T13:38:51.244Z,101318.53
2023-05-09T13:41:23.982Z,101322.81
2023-05-09T13:43:52.024Z,101310.97
2023-05-09T13:46:19.792Z,101311.50
2023-05-09T13:48:48.287Z,101311.91
2023-05-09T13:51:16.072Z,101303.47
2023-05-09T13:53:44.024Z,101303.03
2023-05-09T13:56:11.832Z,101302.19
2023-05-09T13:58:39.724Z,101286.44
2023-05-09T14:01:07.647Z,101297.09
2023-05-09T14:03:35.918Z,101296.03
2023-05-09T14:06:04.389Z,101298.22
2023-05-09T14:08:33.161Z,101267.75
2023-05-09T14:11:01.534Z,101280.63
2023-05-09T14:13:31.915Z,101286.13
2023-05-09T14:16:00.040Z,101282.75
2023-05-09T14:18:28.132Z,101279.75
2023-05-09T14:20:56.516Z,101277.84
2023-05-09T14:23:24.539Z,101263.03
2023-05-09T14:25:52.355Z,101256.03
2023-05-09T14:28:20.369Z,101266.28
2023-05-09T14:30:48.222Z,101267.31
2023-05-09T14:33:16.245Z,101265.28
2023-05-09T14:35:43.983Z,101254.56
2023-05-09T14:38:13.781Z,101258.47
2023-05-09T14:40:41.505Z,101260.31
2023-05-09T14:43:09.628Z,101258.75
2023-05-09T14:45:37.668Z,101253.59
2023-05-09T14:48:05.900Z,101252.59
2023-05-09T14:50:33.682Z,101256.53
2023-05-09T14:53:02.107Z,101244.44
2023-05-09T14:55:31.283Z,101241.28
2023-05-09T14:57:59.497Z,101253.16
2023-05-09T15:00:28.757Z,101252.44
2023-05-09T15:02:57.763Z,101248.31
2023-05-09T15:05:25.664Z,101235.50
2023-05-09T15:07:53.806Z,101235.84
2023-05-09T15:10:21.922Z,101231.72
2023-05-09T15:12:50.155Z,101230.56
2023-05-09T15:15:20.939Z,101224.56
2023-05-09T15:17:48.916Z,101223.34
2023-05-09T15:20:20.805Z,101225.56
2023-05-09T15:22:50.172Z,101224.84
2023-05-09T15:25:19.707Z,101219.84
2023-05-09T15:27:50.389Z,101213.69
2023-05-09T15:30:18.718Z,101209.44
2023-05-09T15:32:46.994Z,101209.72
2023-05-09T15:35:15.909Z,101212.34
2023-05-09T15:37:43.902Z,101205.56
2023-05-09T15:40:12.307Z,101204.56
2023-05-09T15:42:40.243Z,101203.00
2023-05-09T15:45:08.872Z,101200.41
2023-05-09T15:47:36.706Z,101198.84
2023-05-09T15:50:05.001Z,101203.50
2023-05-09T15:52:32.765Z,101201.28
2023-05-09T15:55:01.027Z,101197.06
2023-05-09T15:57:28.816Z,101204.31
2023-05-09T15:59:56.824Z,101191.22
2023-05-09T16:02:24.906Z,101195.78
2023-05-09T16:04:53.133Z,101190.78
2023-05-09T16:07:21.019Z,101186.22
2023-05-09T16:09:49.047Z,101176.22
2023-05-09T16:12:17.208Z,101178.19
2023-05-09T16:14:45.525Z,101173.56
2023-05-09T16:17:13.350Z,101173.66
2023-05-09T16:19:41.405Z,101169.09
2023-05-09T16:22:09.223Z,101167.13
2023-05-09T16:24:37.736Z,101158.19
2023-05-09T16:27:05.559Z,101157.53
2023-05-09T16:29:33.494Z,101159.28
2023-05-09T16:32:01.401Z,101154.84
2023-05-09T16:34:29.456Z,101159.47
2023-05-09T16:36:57.294Z,101157.00
2023-05-09T16:39:27.901Z,101153.25
2023-05-09T16:41:56.659Z,101156.53
2023-05-09T16:44:27.517Z,101152.03
2023-05-09T16:46:55.366Z,101145.38
2023-05-09T16:49:23.365Z,101141.00
2023-05-09T16:51:51.162Z,101140.28
2023-05-09T16:54:19.173Z,101141.41
2023-05-09T16:56:46.928Z,101132.44
2023-05-09T16:59:15.419Z,101129.44
2023-05-09T17:01:43.532Z,101138.66
2023-05-09T17:04:11.697Z,101122.50
2023-05-09T17:06:39.418Z,101126.59
2023-05-09T17:09:07.700Z,101130.78
2023-05-09T17:11:35.456Z,101122.00
2023-05-09T17:14:04.291Z,101123.47
2023-05-09T17:16:32.149Z,101120.31
2023-05-09T17:19:00.247Z,101120.81
2023-05-09T17:21:28.389Z,101122.75
2023-05-09T17:23:56.668Z,101118.22
2023-05-09T17:26:24.491Z,101119.56
2023-05-09T17:28:52.437Z,101120.53
2023-05-09T17:31:20.173Z,101120.66
2023-05-09T17:33:48.214Z,101126.38
2023-05-09T17:36:15.922Z,101118.84
2023-05-09T17:38:44.044Z,101115.59
2023-05-09T17:41:12.099Z,101108.03
2023-05-09T17:43:40.054Z,101117.28
2023-05-09T17:46:08.266Z,101111.81
2023-05-09T17:48:36.265Z,101115.78
2023-05-09T17:51:04.134Z,101120.69
2023-05-09T17:53:32.493Z,101119.56
2023-05-09T17:56:00.317Z,101113.66
2023-05-09T17:58:28.369Z,101125.34
2023-05-09T18:00:58.546Z,101126.06
2023-05-09T18:03:28.868Z,101122.06
2023-05-09T18:05:57.280Z,101125.66
2023-05-09T18:08:25.320Z,101122.41
2023-05-09T18:10:54.714Z,101120.19
2023-05-09T18:13:23.199Z,101125.72
2023-05-09T18:15:51.053Z,101125.03
2023-05-09T18:18:19.138Z,101125.53
2023-05-09T18:20:47.436Z,101125.00
2023-05-09T18:23:16.102Z,101130.53
2023-05-09T18:25:44.063Z,101123.44
2023-05-09T18:28:11.971Z,101133.66
2023-05-09T18:30:39.660Z,101131.19
2023-05-09T18:33:08.137Z,101135.94
2023-05-09T18:35:35.968Z,101130.50
2023-05-09T18:38:03.996Z,101133.91
2023-05-09T18:40:32.606Z,101134.06
2023-05-09T18:43:00.654Z,101139.38
2023-05-09T18:45:29.176Z,101136.09
2023-05-09T18:47:57.217Z,101139.38
2023-05-09T18:50:25.070Z,101142.97
2023-05-09T18:52:53.755Z,101139.25
2023-05-09T18:55:22.129Z,101142.06
2023-05-09T18:57:50.271Z,101149.38
2023-05-09T19:00:18.334Z,101140.59
2023-05-09T19:02:46.397Z,101142.59
2023-05-09T19:05:14.221Z,101142.03
2023-05-09T19:07:42.230Z,101143.16
2023-05-09T19:10:10.597Z,101141.38
2023-05-09T19:12:38.620Z,101136.34
2023-05-09T19:15:07.453Z,101137.59
2023-05-09T19:17:35.416Z,101138.63
2023-05-09T19:20:04.003Z,101139.47
2023-05-09T19:22:32.242Z,101137.00
2023-05-09T19:24:59.977Z,101119.94
2023-05-09T19:27:28.037Z,101125.09
2023-05-09T19:29:55.687Z,101135.41
2023-05-09T19:32:23.672Z,101139.69
2023-05-09T19:34:52.065Z,101135.44
2023-05-09T19:37:20.025Z,101128.66
2023-05-09T19:39:47.713Z,101121.63
2023-05-09T19:42:15.794Z,101120.22
2023-05-09T19:44:44.829Z,101120.38
2023-05-09T19:47:12.841Z,101115.09
2023-05-09T19:49:42.492Z,101131.03
2023-05-09T19:52:10.629Z,101133.00
2023-05-09T19:54:38.350Z,101131.31
2023-05-09T19:57:06.589Z,101128.78
2023-05-09T19:59:34.592Z,101127.88
2023-05-09T20:02:02.866Z,101119.56
2023-05-09T20:04:36.006Z,101120.22
2023-05-09T20:07:04.745Z,101115.38
2023-05-09T20:09:33.052Z,101119.00
2023-05-09T20:12:03.603Z,101118.94
2023-05-09T20:14:32.037Z,101122.41
2023-05-09T20:17:00.145Z,101114.66
2023-05-09T20:19:27.887Z,101126.16
2023-05-09T20:21:56.017Z,101118.31
2023-05-09T20:24:23.687Z,101120.13
2023-05-09T20:26:52.115Z,101113.19
2023-05-09T20:29:19.764Z,101122.13
2023-05-09T20:31:47.894Z,101121.41
2023-05-09T20:34:17.994Z,101114.50
2023-05-09T20:36:50.851Z,101125.91
2023-05-09T20:39:19.443Z,101122.56
2023-05-09T20:41:49.092Z,101119.91
2023-05-09T20:44:18.052Z,101124.88
2023-05-09T20:46:46.468Z,101119.44
2023-05-09T20:49:15.496Z,101113.47
2023-05-09T20:51:43.420Z,101077.50
2023-05-09T20:54:11.095Z,101107.66
2023-05-09T20:56:39.083Z,101114.88
2023-05-09T20:59:06.834Z,101112.25
2023-05-09T21:01:40.181Z,101114.00
2023-05-09T21:04:08.525Z,101112.41
2023-05-09T21:06:37.107Z,101119.47
2023-05-09T21:09:09.346Z,101109.16
2023-05-09T21:11:38.596Z,101106.59
2023-05-09T21:14:07.185Z,101111.94
2023-05-09T21:16:35.375Z,101113.72
2023-05-09T21:19:05.068Z,101112.91
2023-05-09T21:21:33.377Z,101114.72
2023-05-09T21:24:04.174Z,101111.34
2023-05-09T21:26:33.201Z,101103.56
2023-05-09T21:29:00.834Z,101110.53
2023-05-09T21:31:28.825Z,101104.56
2023-05-09T21:33:56.494Z,101102.00
2023-05-09T21:36:24.477Z,101106.25
2023-05-09T21:38:52.210Z,101101.78
2023-05-09T21:41:21.994Z,101101.88
2023-05-09T21:43:49.593Z,101101.09
2023-05-09T21:46:17.519Z,101103.00
2023-05-09T21:48:45.197Z,101103.84
2023-05-09T21:51:13.189Z,101106.28
2023-05-09T21:53:40.895Z,101102.06
2023-05-09T21:56:08.869Z,101109.06
2023-05-09T21:58:36.504Z,101105.66
2023-05-09T22:01:04.574Z,101105.69
2023-05-09T22:03:32.381Z,101108.34
2023-05-09T22:06:00.254Z,101108.41
2023-05-09T22:08:27.880Z,101113.53
2023-05-09T22:10:55.941Z,101116.19
2023-05-09T22:13:23.695Z,101112.69
2023-05-09T22:15:51.729Z,101107.59
2023-05-09T22:18:19.480Z,101108.47
2023-05-09T22:20:47.291Z,101108.47
2023-05-09T22:23:14.950Z,101102.47
2023-05-09T22:25:42.849Z,101099.00
2023-05-09T22:28:10.549Z,101098.16
2023-05-09T22:30:38.473Z,101099.88
2023-05-09T22:33:06.178Z,101092.94
2023-05-09T22:35:34.205Z,101099.00
2023-05-09T22:38:01.823Z,101093.72
2023-05-09T22:40:29.897Z,101087.69
2023-05-09T22:42:57.474Z,101098.00
2023-05-09T22:45:25.812Z,101095.38
2023-05-09T22:47:53.484Z,101098.84
2023-05-09T22:50:21.497Z,101091.84
2023-05-09T22:52:49.196Z,101094.41
2023-05-09T22:55:17.174Z,101093.56
2023-05-09T22:57:44.790Z,101096.22
2023-05-09T23:00:13.524Z,101097.88
2023-05-09T23:02:41.491Z,101091.84
2023-05-09T23:05:09.757Z,101095.31
2023-05-09T23:07:37.601Z,101088.38
2023-05-09T23:10:06.053Z,101084.91
2023-05-09T23:12:33.771Z,101084.09
2023-05-09T23:15:01.702Z,101091.00
2023-05-09T23:17:29.471Z,101083.13
2023-05-09T23:19:57.417Z,101086.72
2023-05-09T23:22:25.089Z,101084.22
2023-05-09T23:24:53.201Z,101081.50
2023-05-09T23:27:20.860Z,101069.47
2023-05-09T23:29:48.989Z,101085.09
2023-05-09T23:32:16.598Z,101082.44
2023-05-09T23:34:44.611Z,101075.41
2023-05-09T23:37:12.515Z,101081.53
2023-05-09T23:39:40.807Z,101084.09
2023-05-09T23:42:08.418Z,101078.91
2023-05-09T23:44:36.347Z,101078.00
2023-05-09T23:47:04.205Z,101078.81
2023-05-09T23:49:32.129Z,101072.00
2023-05-09T23:51:59.728Z,101072.06
2023-05-09T23:54:27.757Z,101071.22
2023-05-09T23:56:57.362Z,101065.22
2023-05-09T23:59:25.356Z,101064.19
